createdAt,value
2017-05-20T00:00:22.378Z,1014.30
2017-05-20T00:01:24.213Z,1014.42
2017-05-20T00:02:26.063Z,1014.41
2017-05-20T00:03:27.917Z,1014.37
2017-05-20T00:04:29.753Z,1014.36
2017-05-20T00:05:31.599Z,1014.46
2017-05-20T00:06:33.413Z,1014.40
2017-05-20T00:07:47.640Z,1014.41
2017-05-20T00:08:49.484Z,1014.50
2017-05-20T00:09:51.303Z,1014.47
2017-05-20T00:10:53.116Z,1014.55
2017-05-20T00:11:54.943Z,1014.48
2017-05-20T00:12:56.785Z,1014.46
2017-05-20T00:13:58.634Z,1014.51
2017-05-20T00:15:00.472Z,1014.49
2017-05-20T00:16:02.291Z,1014.49
2017-05-20T00:17:16.423Z,1014.53
2017-05-20T00:18:18.269Z,1014.54
2017-05-20T00:19:20.106Z,1014.53
2017-05-20T00:20:21.950Z,1014.57
2017-05-20T00:21:23.770Z,1014.65
2017-05-20T00:22:25.615Z,1014.54
2017-05-20T00:23:27.508Z,1014.58
2017-05-20T00:24:29.326Z,1014.54
2017-05-20T00:25:31.171Z,1014.58
2017-05-20T00:26:45.347Z,1014.29
2017-05-20T00:27:47.191Z,1014.59
2017-05-20T00:28:49.133Z,1014.55
2017-05-20T00:29:50.952Z,1014.57
2017-05-20T00:30:52.769Z,1014.64
2017-05-20T00:31:54.610Z,1014.63
2017-05-20T00:32:56.431Z,1014.62
2017-05-20T00:33:58.480Z,1014.68
2017-05-20T00:35:00.294Z,1014.68
2017-05-20T00:36:14.418Z,1014.66
2017-05-20T00:37:16.241Z,1014.78
2017-05-20T00:38:18.090Z,1014.91
2017-05-20T00:39:19.930Z,1014.96
2017-05-20T00:40:21.780Z,1014.77
2017-05-20T00:41:23.613Z,1014.85
2017-05-20T00:42:25.458Z,1014.73
2017-05-20T00:43:27.279Z,1014.85
2017-05-20T00:44:29.116Z,1014.80
2017-05-20T00:45:43.216Z,1014.86
2017-05-20T00:46:45.036Z,1014.87
2017-05-20T00:47:46.884Z,1014.91
2017-05-20T00:48:48.699Z,1014.92
2017-05-20T00:49:50.641Z,1014.88
2017-05-20T00:50:52.485Z,1014.85
2017-05-20T00:51:54.302Z,1014.92
2017-05-20T00:52:56.123Z,1014.93
2017-05-20T00:53:57.974Z,1014.94
2017-05-20T00:55:12.443Z,1014.95
2017-05-20T00:56:14.287Z,1014.98
2017-05-20T00:57:16.133Z,1014.96
2017-05-20T00:58:17.947Z,1014.97
2017-05-20T00:59:19.765Z,1014.99
2017-05-20T01:00:21.628Z,1014.96
2017-05-20T01:01:23.449Z,1015.02
2017-05-20T01:02:25.295Z,1014.92
2017-05-20T01:03:27.135Z,1015.08
2017-05-20T01:04:41.559Z,1015.10
2017-05-20T01:05:43.406Z,1015.09
2017-05-20T01:06:45.221Z,1015.12
2017-05-20T01:07:47.063Z,1014.99
2017-05-20T01:08:48.908Z,1014.95
2017-05-20T01:09:50.749Z,1014.94
2017-05-20T01:10:52.696Z,1015.06
2017-05-20T01:11:54.542Z,1015.01
2017-05-20T01:12:56.380Z,1014.97
2017-05-20T01:14:10.484Z,1015.05
2017-05-20T01:15:12.294Z,1015.02
2017-05-20T01:16:14.115Z,1015.16
2017-05-20T01:17:15.931Z,1015.12
2017-05-20T01:18:17.750Z,1015.06
2017-05-20T01:19:19.588Z,1015.04
2017-05-20T01:20:21.404Z,1015.19
2017-05-20T01:21:23.446Z,1015.11
2017-05-20T01:22:25.294Z,1015.11
2017-05-20T01:23:39.411Z,1015.07
2017-05-20T01:24:41.256Z,1015.13
2017-05-20T01:25:43.072Z,1015.15
2017-05-20T01:26:45.087Z,1015.07
2017-05-20T01:27:46.929Z,1015.09
2017-05-20T01:28:48.742Z,1015.14
2017-05-20T01:29:50.585Z,1015.15
2017-05-20T01:30:52.429Z,1015.10
2017-05-20T01:31:54.646Z,1015.14
2017-05-20T01:33:08.865Z,1015.16
2017-05-20T01:34:10.711Z,1015.14
2017-05-20T01:35:12.555Z,1015.14
2017-05-20T01:36:14.394Z,1015.30
2017-05-20T01:37:16.262Z,1015.46
2017-05-20T01:38:18.080Z,1015.14
2017-05-20T01:39:19.898Z,1015.17
2017-05-20T01:40:21.716Z,1015.15
2017-05-20T01:41:23.557Z,1015.12
2017-05-20T01:42:37.881Z,1015.15
2017-05-20T01:43:39.726Z,1015.16
2017-05-20T01:44:41.562Z,1015.14
2017-05-20T01:45:43.406Z,1015.18
2017-05-20T01:46:45.247Z,1015.14
2017-05-20T01:47:47.112Z,1015.13
2017-05-20T01:48:48.959Z,1015.07
2017-05-20T01:49:50.772Z,1015.12
2017-05-20T01:50:52.609Z,1015.23
2017-05-20T01:52:06.855Z,1015.05
2017-05-20T01:53:08.670Z,1015.12
2017-05-20T01:54:10.493Z,1015.10
2017-05-20T01:55:12.333Z,1015.17
2017-05-20T01:56:14.153Z,1015.24
2017-05-20T01:57:15.991Z,1015.17
2017-05-20T01:58:17.860Z,1015.18
2017-05-20T01:59:19.710Z,1015.08
2017-05-20T02:00:21.555Z,1015.17
2017-05-20T02:01:35.722Z,1015.13
2017-05-20T02:02:37.571Z,1015.16
2017-05-20T02:03:39.412Z,1015.14
2017-05-20T02:04:41.265Z,1015.11
2017-05-20T02:05:43.100Z,1015.09
2017-05-20T02:06:44.920Z,1015.10
2017-05-20T02:07:46.740Z,1015.15
2017-05-20T02:08:48.583Z,1015.11
2017-05-20T02:09:50.423Z,1015.26
2017-05-20T02:11:04.559Z,1015.16
2017-05-20T02:12:06.393Z,1015.11
2017-05-20T02:13:08.219Z,1015.18
2017-05-20T02:14:10.355Z,1015.26
2017-05-20T02:15:12.196Z,1015.20
2017-05-20T02:16:14.037Z,1015.24
2017-05-20T02:17:15.862Z,1015.26
2017-05-20T02:18:17.699Z,1015.28
2017-05-20T02:19:19.745Z,1015.30
2017-05-20T02:20:33.869Z,1015.40
2017-05-20T02:21:35.707Z,1015.37
2017-05-20T02:22:37.555Z,1015.43
2017-05-20T02:23:39.399Z,1015.64
2017-05-20T02:24:41.242Z,1015.52
2017-05-20T02:25:43.059Z,1015.48
2017-05-20T02:26:44.877Z,1015.48
2017-05-20T02:27:46.720Z,1015.57
2017-05-20T02:28:48.566Z,1015.47
2017-05-20T02:30:02.991Z,1015.59
2017-05-20T02:31:04.841Z,1015.58
2017-05-20T02:32:06.677Z,1015.55
2017-05-20T02:33:08.519Z,1015.61
2017-05-20T02:34:10.358Z,1015.64
2017-05-20T02:35:12.280Z,1015.63
2017-05-20T02:36:14.096Z,1015.63
2017-05-20T02:37:15.937Z,1015.64
2017-05-20T02:38:17.761Z,1015.73
2017-05-20T02:39:31.887Z,1015.73
2017-05-20T02:40:33.727Z,1015.66
2017-05-20T02:41:35.580Z,1015.70
2017-05-20T02:42:37.418Z,1015.72
2017-05-20T02:43:39.256Z,1015.70
2017-05-20T02:44:41.076Z,1015.71
2017-05-20T02:45:43.316Z,1015.77
2017-05-20T02:46:45.136Z,1015.68
2017-05-20T02:47:46.985Z,1015.74
2017-05-20T02:49:01.110Z,1015.73
2017-05-20T02:50:02.954Z,1015.75
2017-05-20T02:51:04.974Z,1015.79
2017-05-20T02:52:06.814Z,1015.79
2017-05-20T02:53:08.637Z,1015.88
2017-05-20T02:54:10.481Z,1015.89
2017-05-20T02:55:12.330Z,1015.86
2017-05-20T02:56:14.254Z,1015.86
2017-05-20T02:57:16.100Z,1015.87
2017-05-20T02:58:30.233Z,1015.83
2017-05-20T02:59:32.076Z,1015.81
2017-05-20T03:00:33.895Z,1015.81
2017-05-20T03:01:35.935Z,1015.85
2017-05-20T03:02:37.778Z,1015.98
2017-05-20T03:03:39.631Z,1015.93
2017-05-20T03:04:41.469Z,1016.06
2017-05-20T03:05:43.293Z,1015.98
2017-05-20T03:06:45.138Z,1016.01
2017-05-20T03:07:59.261Z,1016.04
2017-05-20T03:09:01.079Z,1016.01
2017-05-20T03:10:02.898Z,1016.12
2017-05-20T03:11:04.721Z,1016.02
2017-05-20T03:12:06.965Z,1016.12
2017-05-20T03:13:08.813Z,1016.13
2017-05-20T03:14:10.656Z,1016.11
2017-05-20T03:15:12.505Z,1016.34
2017-05-20T03:16:14.403Z,1016.11
2017-05-20T03:17:28.637Z,1016.15
2017-05-20T03:18:30.485Z,1016.15
2017-05-20T03:19:32.332Z,1016.16
2017-05-20T03:20:34.151Z,1016.18
2017-05-20T03:21:35.999Z,1016.22
2017-05-20T03:22:38.240Z,1016.24
2017-05-20T03:23:40.082Z,1016.32
2017-05-20T03:24:41.930Z,1016.28
2017-05-20T03:25:43.748Z,1016.38
2017-05-20T03:26:57.849Z,1016.36
2017-05-20T03:27:59.698Z,1016.39
2017-05-20T03:29:01.544Z,1016.37
2017-05-20T03:30:03.364Z,1016.44
2017-05-20T03:31:05.215Z,1016.39
2017-05-20T03:32:07.065Z,1016.43
2017-05-20T03:33:09.206Z,1016.49
2017-05-20T03:34:11.055Z,1016.53
2017-05-20T03:35:12.898Z,1016.52
2017-05-20T03:36:27.046Z,1016.59
2017-05-20T03:37:28.865Z,1016.51
2017-05-20T03:38:30.856Z,1016.52
2017-05-20T03:39:32.655Z,1016.57
2017-05-20T03:40:34.501Z,1016.62
2017-05-20T03:41:36.351Z,1016.58
2017-05-20T03:42:38.199Z,1016.59
2017-05-20T03:43:40.239Z,1016.60
2017-05-20T03:44:42.063Z,1016.58
2017-05-20T03:45:56.212Z,1016.68
2017-05-20T03:46:58.059Z,1016.68
2017-05-20T03:47:59.913Z,1016.76
2017-05-20T03:49:01.756Z,1016.70
2017-05-20T03:50:03.598Z,1016.74
2017-05-20T03:51:05.418Z,1016.72
2017-05-20T03:52:07.242Z,1016.75
2017-05-20T03:53:09.085Z,1016.72
2017-05-20T03:54:11.234Z,1016.75
2017-05-20T03:55:25.388Z,1016.77
2017-05-20T03:56:27.234Z,1016.75
2017-05-20T03:57:29.051Z,1016.79
2017-05-20T03:58:30.874Z,1016.82
2017-05-20T03:59:33.073Z,1016.83
2017-05-20T04:00:34.912Z,1016.80
2017-05-20T04:01:36.737Z,1016.85
2017-05-20T04:02:38.553Z,1016.86
2017-05-20T04:03:40.371Z,1016.90
2017-05-20T04:04:54.551Z,1016.94
2017-05-20T04:05:56.401Z,1016.96
2017-05-20T04:06:58.246Z,1017.00
2017-05-20T04:08:00.063Z,1017.04
2017-05-20T04:09:01.886Z,1017.03
2017-05-20T04:10:04.027Z,1017.02
2017-05-20T04:11:05.854Z,1017.03
2017-05-20T04:12:07.694Z,1017.04
2017-05-20T04:13:09.519Z,1017.04
2017-05-20T04:14:23.696Z,1017.10
2017-05-20T04:15:25.542Z,1017.07
2017-05-20T04:16:27.395Z,1017.04
2017-05-20T04:17:29.213Z,1017.08
2017-05-20T04:18:31.057Z,1017.10
2017-05-20T04:19:32.881Z,1017.15
2017-05-20T04:20:34.826Z,1017.14
2017-05-20T04:21:36.676Z,1017.25
2017-05-20T04:22:38.495Z,1017.26
2017-05-20T04:23:52.684Z,1017.37
2017-05-20T04:24:54.498Z,1017.29
2017-05-20T04:25:56.518Z,1017.32
2017-05-20T04:26:58.341Z,1017.28
2017-05-20T04:28:00.160Z,1017.38
2017-05-20T04:29:02.009Z,1017.34
2017-05-20T04:30:03.838Z,1017.26
2017-05-20T04:31:05.688Z,1017.33
2017-05-20T04:32:07.537Z,1017.35
2017-05-20T04:33:21.716Z,1017.36
2017-05-20T04:34:23.539Z,1017.35
2017-05-20T04:35:25.387Z,1017.33
2017-05-20T04:36:27.235Z,1017.39
2017-05-20T04:37:29.053Z,1017.37
2017-05-20T04:38:30.882Z,1017.35
2017-05-20T04:39:32.728Z,1017.43
2017-05-20T04:40:34.553Z,1017.41
2017-05-20T04:41:36.496Z,1017.39
2017-05-20T04:42:50.599Z,1017.42
2017-05-20T04:43:52.447Z,1017.39
2017-05-20T04:44:54.298Z,1017.53
2017-05-20T04:45:56.119Z,1017.44
2017-05-20T04:46:58.259Z,1017.47
2017-05-20T04:48:00.083Z,1017.46
2017-05-20T04:49:01.906Z,1017.49
2017-05-20T04:50:03.751Z,1017.48
2017-05-20T04:51:05.573Z,1017.55
2017-05-20T04:52:19.701Z,1017.59
2017-05-20T04:53:21.553Z,1017.59
2017-05-20T04:54:23.394Z,1017.64
2017-05-20T04:55:25.221Z,1017.64
2017-05-20T04:56:27.037Z,1017.64
2017-05-20T04:57:28.863Z,1017.71
2017-05-20T04:58:30.685Z,1017.77
2017-05-20T04:59:32.502Z,1017.82
2017-05-20T05:00:34.325Z,1017.80
2017-05-20T05:01:48.534Z,1017.90
2017-05-20T05:02:50.383Z,1017.84
2017-05-20T05:03:52.236Z,1017.86
2017-05-20T05:04:54.078Z,1017.77
2017-05-20T05:05:55.935Z,1017.82
2017-05-20T05:06:57.781Z,1017.81
2017-05-20T05:07:59.655Z,1017.87
2017-05-20T05:09:01.477Z,1017.91
2017-05-20T05:10:03.331Z,1017.93
2017-05-20T05:11:17.457Z,1017.93
2017-05-20T05:12:19.309Z,1017.97
2017-05-20T05:13:21.162Z,1017.90
2017-05-20T05:14:22.982Z,1017.85
2017-05-20T05:15:24.824Z,1017.89
2017-05-20T05:16:26.650Z,1017.94
2017-05-20T05:17:28.491Z,1018.00
2017-05-20T05:18:30.369Z,1017.98
2017-05-20T05:19:32.213Z,1018.00
2017-05-20T05:20:46.402Z,1017.98
2017-05-20T05:21:48.242Z,1018.02
2017-05-20T05:22:50.095Z,1018.02
2017-05-20T05:23:52.042Z,1018.15
2017-05-20T05:24:53.871Z,1018.12
2017-05-20T05:25:55.723Z,1018.12
2017-05-20T05:26:57.566Z,1018.12
2017-05-20T05:27:59.421Z,1018.08
2017-05-20T05:29:01.673Z,1018.08
2017-05-20T05:30:15.853Z,1018.12
2017-05-20T05:31:17.672Z,1018.08
2017-05-20T05:32:19.494Z,1018.10
2017-05-20T05:33:21.322Z,1018.08
2017-05-20T05:34:23.166Z,1018.13
2017-05-20T05:35:25.016Z,1018.11
2017-05-20T05:36:26.840Z,1018.13
2017-05-20T05:37:28.694Z,1018.12
2017-05-20T05:38:30.539Z,1018.12
2017-05-20T05:39:44.695Z,1018.12
2017-05-20T05:40:46.545Z,1018.15
2017-05-20T05:41:48.398Z,1018.19
2017-05-20T05:42:50.244Z,1018.22
2017-05-20T05:43:52.074Z,1018.20
2017-05-20T05:44:54.017Z,1018.21
2017-05-20T05:45:55.863Z,1018.22
2017-05-20T05:46:57.691Z,1018.25
2017-05-20T05:47:59.541Z,1018.28
2017-05-20T05:49:13.641Z,1018.36
2017-05-20T05:50:15.460Z,1018.35
2017-05-20T05:51:17.292Z,1018.34
2017-05-20T05:52:19.135Z,1018.37
2017-05-20T05:53:20.963Z,1018.36
2017-05-20T05:54:22.815Z,1018.44
2017-05-20T05:55:24.665Z,1018.44
2017-05-20T05:56:26.492Z,1018.46
2017-05-20T05:57:28.335Z,1018.53
2017-05-20T05:58:42.471Z,1018.52
2017-05-20T05:59:44.324Z,1018.47
2017-05-20T06:00:46.169Z,1018.53
2017-05-20T06:01:48.016Z,1018.53
2017-05-20T06:02:49.834Z,1018.56
2017-05-20T06:03:51.662Z,1018.58
2017-05-20T06:04:53.510Z,1018.58
2017-05-20T06:05:55.463Z,1018.64
2017-05-20T06:06:57.312Z,1018.61
2017-05-20T06:08:11.459Z,1018.64
2017-05-20T06:09:13.286Z,1018.67
2017-05-20T06:10:15.110Z,1018.87
2017-05-20T06:11:17.132Z,1018.74
2017-05-20T06:12:18.981Z,1018.76
2017-05-20T06:13:20.831Z,1018.74
2017-05-20T06:14:22.679Z,1018.91
2017-05-20T06:15:24.532Z,1018.87
2017-05-20T06:16:26.373Z,1018.94
2017-05-20T06:17:40.485Z,1018.88
2017-05-20T06:18:42.335Z,1018.93
2017-05-20T06:19:44.160Z,1018.97
2017-05-20T06:20:46.013Z,1018.95
2017-05-20T06:21:47.832Z,1018.98
2017-05-20T06:22:49.681Z,1018.94
2017-05-20T06:23:51.527Z,1018.82
2017-05-20T06:24:53.357Z,1018.83
2017-05-20T06:25:55.207Z,1018.85
2017-05-20T06:27:09.387Z,1018.93
2017-05-20T06:28:11.213Z,1019.02
2017-05-20T06:29:13.057Z,1019.02
2017-05-20T06:30:14.880Z,1019.10
2017-05-20T06:31:16.702Z,1019.07
2017-05-20T06:32:18.750Z,1019.00
2017-05-20T06:33:20.584Z,1018.98
2017-05-20T06:34:22.424Z,1019.01
2017-05-20T06:35:24.276Z,1019.03
2017-05-20T06:36:38.616Z,1019.12
2017-05-20T06:37:40.474Z,1019.10
2017-05-20T06:38:42.296Z,1019.18
2017-05-20T06:39:44.145Z,1019.13
2017-05-20T06:40:45.997Z,1019.15
2017-05-20T06:41:47.826Z,1019.31
2017-05-20T06:42:49.697Z,1019.34
2017-05-20T06:43:51.524Z,1019.35
2017-05-20T06:44:53.376Z,1019.28
2017-05-20T06:46:07.487Z,1019.28
2017-05-20T06:47:09.312Z,1019.37
2017-05-20T06:48:11.161Z,1019.42
2017-05-20T06:49:12.981Z,1019.43
2017-05-20T06:50:14.812Z,1019.45
2017-05-20T06:51:16.668Z,1019.41
2017-05-20T06:52:18.517Z,1019.32
2017-05-20T06:53:20.396Z,1019.40
2017-05-20T06:54:22.217Z,1019.41
2017-05-20T06:55:36.401Z,1019.44
2017-05-20T06:56:38.234Z,1019.49
2017-05-20T06:57:40.078Z,1019.47
2017-05-20T06:58:42.009Z,1019.53
2017-05-20T06:59:43.854Z,1019.54
2017-05-20T07:00:45.714Z,1019.64
2017-05-20T07:01:47.564Z,1019.55
2017-05-20T07:02:49.397Z,1019.71
2017-05-20T07:03:51.243Z,1019.69
2017-05-20T07:05:05.388Z,1019.74
2017-05-20T07:06:07.233Z,1019.85
2017-05-20T07:07:09.064Z,1019.77
2017-05-20T07:08:10.915Z,1019.92
2017-05-20T07:09:12.868Z,1019.84
2017-05-20T07:10:14.718Z,1019.84
2017-05-20T07:11:16.597Z,1019.75
2017-05-20T07:12:18.438Z,1019.76
2017-05-20T07:13:20.295Z,1019.81
2017-05-20T07:14:34.453Z,1019.78
2017-05-20T07:15:36.301Z,1019.78
2017-05-20T07:16:38.138Z,1019.79
2017-05-20T07:17:39.991Z,1019.83
2017-05-20T07:18:41.846Z,1019.94
2017-05-20T07:19:43.911Z,1019.83
2017-05-20T07:20:45.764Z,1019.92
2017-05-20T07:21:47.623Z,1019.80
2017-05-20T07:22:49.478Z,1019.76
2017-05-20T07:24:03.605Z,1019.79
2017-05-20T07:25:05.434Z,1019.77
2017-05-20T07:26:07.286Z,1019.74
2017-05-20T07:27:09.140Z,1019.80
2017-05-20T07:28:10.981Z,1019.92
2017-05-20T07:29:12.811Z,1019.91
2017-05-20T07:30:14.742Z,1020.06
2017-05-20T07:31:16.591Z,1020.26
2017-05-20T07:32:18.446Z,1020.18
2017-05-20T07:33:32.631Z,1020.25
2017-05-20T07:34:34.482Z,1020.30
2017-05-20T07:35:36.336Z,1020.29
2017-05-20T07:36:38.191Z,1020.28
2017-05-20T07:37:40.127Z,1020.37
2017-05-20T07:38:41.978Z,1020.39
2017-05-20T07:39:43.850Z,1020.38
2017-05-20T07:40:45.794Z,1020.33
2017-05-20T07:41:47.715Z,1020.32
2017-05-20T07:43:01.903Z,1020.32
2017-05-20T07:44:03.760Z,1020.34
2017-05-20T07:45:05.669Z,1020.30
2017-05-20T07:46:07.572Z,1020.34
2017-05-20T07:47:09.431Z,1020.33
2017-05-20T07:48:11.272Z,1020.26
2017-05-20T07:49:13.087Z,1020.16
2017-05-20T07:50:14.950Z,1020.12
2017-05-20T07:51:16.891Z,1020.14
2017-05-20T07:52:31.201Z,1020.13
2017-05-20T07:53:33.055Z,1020.15
2017-05-20T07:54:34.902Z,1020.11
2017-05-20T07:55:36.755Z,1020.06
2017-05-20T07:56:38.617Z,1020.00
2017-05-20T07:57:40.465Z,1019.90
2017-05-20T07:58:42.297Z,1019.83
2017-05-20T07:59:44.156Z,1019.83
2017-05-20T08:00:46.000Z,1019.79
2017-05-20T08:02:00.136Z,1019.76
2017-05-20T08:03:01.963Z,1019.78
2017-05-20T08:04:03.812Z,1019.75
2017-05-20T08:05:05.638Z,1019.82
2017-05-20T08:06:07.490Z,1019.89
2017-05-20T08:07:09.346Z,1019.87
2017-05-20T08:08:11.198Z,1020.00
2017-05-20T08:09:13.055Z,1020.06
2017-05-20T08:10:14.902Z,1020.04
2017-05-20T08:11:29.066Z,1020.00
2017-05-20T08:12:30.918Z,1019.96
2017-05-20T08:13:32.750Z,1020.00
2017-05-20T08:14:34.596Z,1019.97
2017-05-20T08:15:36.427Z,1019.96
2017-05-20T08:16:38.328Z,1019.91
2017-05-20T08:17:40.192Z,1019.82
2017-05-20T08:18:42.045Z,1020.00
2017-05-20T08:19:43.895Z,1019.89
2017-05-20T08:20:58.024Z,1019.99
2017-05-20T08:21:59.852Z,1019.97
2017-05-20T08:23:01.706Z,1020.04
2017-05-20T08:24:03.555Z,1019.99
2017-05-20T08:25:05.399Z,1019.96
2017-05-20T08:26:07.223Z,1020.03
2017-05-20T08:27:09.047Z,1019.98
2017-05-20T08:28:10.999Z,1020.02
2017-05-20T08:29:12.880Z,1020.12
2017-05-20T08:30:27.085Z,1020.05
2017-05-20T08:31:28.936Z,1020.09
2017-05-20T08:32:30.784Z,1020.12
2017-05-20T08:33:32.664Z,1020.17
2017-05-20T08:34:34.545Z,1020.17
2017-05-20T08:35:36.461Z,1020.17
2017-05-20T08:36:38.277Z,1020.21
2017-05-20T08:37:40.122Z,1020.22
2017-05-20T08:38:41.973Z,1020.24
2017-05-20T08:39:56.085Z,1020.29
2017-05-20T08:40:57.908Z,1020.30
2017-05-20T08:41:59.734Z,1020.39
2017-05-20T08:43:01.589Z,1020.26
2017-05-20T08:44:03.441Z,1020.20
2017-05-20T08:45:05.295Z,1020.23
2017-05-20T08:46:07.147Z,1020.30
2017-05-20T08:47:09.003Z,1020.37
2017-05-20T08:48:10.870Z,1020.38
2017-05-20T08:49:25.187Z,1020.46
2017-05-20T08:50:27.044Z,1020.42
2017-05-20T08:51:28.873Z,1020.39
2017-05-20T08:52:30.723Z,1020.39
2017-05-20T08:53:32.571Z,1020.33
2017-05-20T08:54:34.625Z,1020.28
2017-05-20T08:55:36.474Z,1020.24
2017-05-20T08:56:38.300Z,1020.26
2017-05-20T08:57:40.126Z,1020.38
2017-05-20T08:58:54.533Z,1020.36
2017-05-20T08:59:56.392Z,1020.37
2017-05-20T09:00:58.243Z,1020.38
2017-05-20T09:02:00.089Z,1020.47
2017-05-20T09:03:01.915Z,1020.56
2017-05-20T09:04:03.750Z,1020.60
2017-05-20T09:05:05.598Z,1020.59
2017-05-20T09:06:07.451Z,1020.66
2017-05-20T09:07:09.282Z,1020.63
2017-05-20T09:08:23.463Z,1020.71
2017-05-20T09:09:25.318Z,1020.78
2017-05-20T09:10:27.182Z,1020.82
2017-05-20T09:11:29.026Z,1020.87
2017-05-20T09:12:30.881Z,1020.99
2017-05-20T09:13:32.728Z,1021.02
2017-05-20T09:14:34.562Z,1020.89
2017-05-20T09:15:36.509Z,1020.78
2017-05-20T09:16:38.346Z,1020.67
2017-05-20T09:17:52.815Z,1020.66
2017-05-20T09:18:54.769Z,1020.62
2017-05-20T09:19:56.616Z,1020.61
2017-05-20T09:20:58.491Z,1020.63
2017-05-20T09:22:00.318Z,1020.56
2017-05-20T09:23:02.175Z,1020.57
2017-05-20T09:24:04.026Z,1020.55
2017-05-20T09:25:05.877Z,1020.53
2017-05-20T09:26:07.734Z,1020.54
2017-05-20T09:27:21.863Z,1020.47
2017-05-20T09:28:23.693Z,1020.44
2017-05-20T09:29:25.544Z,1020.50
2017-05-20T09:30:27.596Z,1020.48
2017-05-20T09:31:42.816Z,1020.64
2017-05-20T09:32:44.675Z,1020.55
2017-05-20T09:33:46.522Z,1020.64
2017-05-20T09:34:48.371Z,1020.76
2017-05-20T09:35:50.206Z,1020.67
2017-05-20T09:37:04.443Z,1020.65
2017-05-20T09:38:06.287Z,1020.62
2017-05-20T09:39:08.119Z,1020.76
2017-05-20T09:40:09.945Z,1020.75
2017-05-20T09:41:11.802Z,1020.83
2017-05-20T09:42:13.673Z,1021.09
2017-05-20T09:43:15.502Z,1021.02
2017-05-20T09:44:17.329Z,1021.17
2017-05-20T09:45:19.157Z,1021.11
2017-05-20T09:46:33.259Z,1021.10
2017-05-20T09:47:35.088Z,1020.93
2017-05-20T09:48:36.938Z,1020.92
2017-05-20T09:49:38.795Z,1020.89
2017-05-20T09:50:40.641Z,1020.95
2017-05-20T09:51:42.473Z,1020.86
2017-05-20T09:52:44.343Z,1020.87
2017-05-20T09:53:46.173Z,1020.86
2017-05-20T09:54:48.023Z,1020.87
2017-05-20T09:56:02.186Z,1020.85
2017-05-20T09:57:04.033Z,1020.78
2017-05-20T09:58:05.892Z,1020.91
2017-05-20T09:59:07.741Z,1020.97
2017-05-20T10:00:09.593Z,1021.00
2017-05-20T10:01:11.448Z,1020.97
2017-05-20T10:02:13.303Z,1021.04
2017-05-20T10:03:15.152Z,1020.97
2017-05-20T10:04:16.984Z,1020.89
2017-05-20T10:05:31.160Z,1020.89
2017-05-20T10:06:33.010Z,1020.98
2017-05-20T10:07:34.943Z,1021.02
2017-05-20T10:08:36.864Z,1021.18
2017-05-20T10:09:38.694Z,1021.20
2017-05-20T10:10:40.520Z,1021.31
2017-05-20T10:11:42.349Z,1021.27
2017-05-20T10:12:44.209Z,1021.21
2017-05-20T10:13:46.077Z,1021.10
2017-05-20T10:15:00.431Z,1020.97
2017-05-20T10:16:02.295Z,1020.89
2017-05-20T10:17:04.123Z,1020.82
2017-05-20T10:18:05.976Z,1020.79
2017-05-20T10:19:07.902Z,1020.82
2017-05-20T10:20:09.731Z,1020.83
2017-05-20T10:21:11.582Z,1020.74
2017-05-20T10:22:13.437Z,1020.73
2017-05-20T10:23:15.288Z,1020.74
2017-05-20T10:24:29.424Z,1020.79
2017-05-20T10:25:31.440Z,1020.88
2017-05-20T10:26:33.258Z,1021.09
2017-05-20T10:27:35.095Z,1021.22
2017-05-20T10:28:36.921Z,1021.16
2017-05-20T10:29:38.776Z,1021.04
2017-05-20T10:30:40.624Z,1020.97
2017-05-20T10:31:42.456Z,1020.92
2017-05-20T10:32:44.308Z,1020.91
2017-05-20T10:33:58.639Z,1020.85
2017-05-20T10:35:00.469Z,1020.85
2017-05-20T10:36:02.325Z,1020.89
2017-05-20T10:37:04.181Z,1020.84
2017-05-20T10:38:06.035Z,1020.93
2017-05-20T10:39:07.855Z,1020.86
2017-05-20T10:40:09.784Z,1020.90
2017-05-20T10:41:11.613Z,1020.84
2017-05-20T10:42:13.462Z,1020.84
2017-05-20T10:43:27.614Z,1020.89
2017-05-20T10:44:29.457Z,1020.82
2017-05-20T10:45:34.521Z,1020.95
2017-05-20T10:46:36.544Z,1020.99
2017-05-20T10:47:38.398Z,1021.11
2017-05-20T10:48:40.257Z,1021.17
2017-05-20T10:49:42.117Z,1021.22
2017-05-20T10:50:43.985Z,1021.26
2017-05-20T10:51:45.815Z,1021.23
2017-05-20T10:52:59.950Z,1021.05
2017-05-20T10:54:01.808Z,1021.00
2017-05-20T10:55:03.665Z,1020.94
2017-05-20T10:56:05.709Z,1020.92
2017-05-20T10:57:07.541Z,1020.83
2017-05-20T10:58:09.394Z,1020.81
2017-05-20T10:59:11.243Z,1020.78
2017-05-20T11:00:13.100Z,1020.85
2017-05-20T11:01:15.203Z,1020.87
2017-05-20T11:02:29.341Z,1020.92
2017-05-20T11:03:31.213Z,1020.92
2017-05-20T11:04:33.058Z,1020.93
2017-05-20T11:05:34.868Z,1021.03
2017-05-20T11:06:36.718Z,1021.23
2017-05-20T11:07:38.563Z,1021.35
2017-05-20T11:08:40.390Z,1021.57
2017-05-20T11:09:42.218Z,1021.59
2017-05-20T11:10:44.071Z,1021.66
2017-05-20T11:11:58.237Z,1021.51
2017-05-20T11:13:00.089Z,1021.44
2017-05-20T11:14:01.937Z,1021.31
2017-05-20T11:15:03.796Z,1021.26
2017-05-20T11:16:05.645Z,1021.20
2017-05-20T11:17:07.495Z,1021.08
2017-05-20T11:18:09.347Z,1021.10
2017-05-20T11:19:11.213Z,1021.03
2017-05-20T11:20:13.313Z,1021.05
2017-05-20T11:21:29.540Z,1020.94
2017-05-20T11:22:31.398Z,1020.88
2017-05-20T11:23:47.018Z,1020.95
2017-05-20T11:24:50.451Z,1020.91
2017-05-20T11:25:52.317Z,1020.99
2017-05-20T11:26:54.548Z,1021.07
2017-05-20T11:27:56.430Z,1021.24
2017-05-20T11:28:58.867Z,1021.17
2017-05-20T11:30:03.087Z,1021.07
2017-05-20T11:31:17.235Z,1021.12
2017-05-20T11:32:19.679Z,1021.03
2017-05-20T11:33:22.968Z,1021.00
2017-05-20T11:34:31.338Z,1020.97
2017-05-20T11:35:33.795Z,1021.06
2017-05-20T11:36:49.369Z,1020.99
2017-05-20T11:37:51.819Z,1020.95
2017-05-20T11:38:54.117Z,1020.96
2017-05-20T11:39:57.982Z,1020.94
2017-05-20T11:41:13.683Z,1021.09
2017-05-20T11:42:19.561Z,1021.11
2017-05-20T11:43:22.051Z,1021.16
2017-05-20T11:44:24.131Z,1021.21
2017-05-20T11:45:26.612Z,1021.46
2017-05-20T11:46:29.057Z,1021.45
2017-05-20T11:47:44.758Z,1021.53
2017-05-20T11:48:46.861Z,1021.59
2017-05-20T11:49:49.377Z,1021.70
2017-05-20T11:51:17.228Z,1021.52
2017-05-20T11:52:20.673Z,1021.36
2017-05-20T11:53:24.117Z,1021.36
2017-05-20T11:54:25.949Z,1021.31
2017-05-20T11:55:28.056Z,1021.22
2017-05-20T11:56:30.106Z,1021.20
2017-05-20T11:57:33.707Z,1021.18
2017-05-20T11:58:36.964Z,1021.21
2017-05-20T11:59:38.811Z,1021.14
2017-05-20T12:00:54.411Z,1021.15
2017-05-20T12:01:56.873Z,1021.10
2017-05-20T12:03:00.332Z,1021.08
2017-05-20T12:04:02.179Z,1021.11
2017-05-20T12:05:04.981Z,1021.08
2017-05-20T12:06:06.862Z,1021.11
2017-05-20T12:07:09.892Z,1021.13
2017-05-20T12:08:15.760Z,1021.19
2017-05-20T12:09:18.225Z,1021.19
2017-05-20T12:10:33.998Z,1021.34
2017-05-20T12:11:35.850Z,1021.45
2017-05-20T12:12:37.708Z,1021.54
2017-05-20T12:13:39.561Z,1021.55
2017-05-20T12:14:41.406Z,1021.39
2017-05-20T12:15:43.233Z,1021.29
2017-05-20T12:16:45.264Z,1021.32
2017-05-20T12:17:47.123Z,1021.31
2017-05-20T12:18:48.948Z,1021.30
2017-05-20T12:20:03.125Z,1021.30
2017-05-20T12:21:04.975Z,1021.27
2017-05-20T12:22:07.005Z,1021.31
2017-05-20T12:23:08.904Z,1021.24
2017-05-20T12:24:10.777Z,1021.16
2017-05-20T12:25:12.719Z,1021.16
2017-05-20T12:26:14.571Z,1021.15
2017-05-20T12:27:16.419Z,1021.18
2017-05-20T12:28:18.243Z,1021.18
2017-05-20T12:29:32.425Z,1021.27
2017-05-20T12:30:34.292Z,1021.11
2017-05-20T12:31:36.132Z,1021.07
2017-05-20T12:32:38.252Z,1021.13
2017-05-20T12:33:40.086Z,1021.08
2017-05-20T12:34:41.909Z,1021.08
2017-05-20T12:35:43.867Z,1021.12
2017-05-20T12:36:45.828Z,1021.18
2017-05-20T12:37:47.858Z,1021.24
2017-05-20T12:39:02.132Z,1021.35
2017-05-20T12:40:03.961Z,1021.38
2017-05-20T12:41:05.786Z,1021.38
2017-05-20T12:42:07.663Z,1021.40
2017-05-20T12:43:09.563Z,1021.47
2017-05-20T12:44:11.428Z,1021.45
2017-05-20T12:45:13.377Z,1021.46
2017-05-20T12:46:15.452Z,1021.45